Time;durP1;ratioP1;P1;durP2;ratioP2;P2;SDS_P1;SDS_P2;PMS_P1;PMS_P2;Temp;Humidity;BMP_temperature;BMP_pressure;BME280_temperature;BME280_humidity;BME280_pressure;Samples;Min_cycle;Max_cycle;Signal;HPM_P1;HPM_P2
2023/09/08 00:00:43;;;;;;;3.53;3.22;;;22.80;66.20;;;;;;5112144;28;20026;-46
2023/09/08 00:03:08;;;;;;;3.50;3.20;;;22.80;66.20;;;;;;5111895;28;20069;-43
2023/09/08 00:05:34;;;;;;;3.67;3.20;;;22.80;66.30;;;;;;5112177;28;20019;-44
2023/09/08 00:07:59;;;;;;;3.95;3.40;;;22.70;66.30;;;;;;5112064;28;20153;-43
2023/09/08 00:10:25;;;;;;;4.03;3.63;;;22.70;66.30;;;;;;5112008;28;20020;-45
2023/09/08 00:12:50;;;;;;;3.75;3.30;;;22.70;66.40;;;;;;5111753;28;20027;-41
2023/09/08 00:15:16;;;;;;;4.10;3.22;;;22.70;66.50;;;;;;5112186;28;20145;-44
2023/09/08 00:17:42;;;;;;;4.05;3.35;;;22.60;66.50;;;;;;5111990;28;20350;-43
2023/09/08 00:20:10;;;;;;;4.60;3.45;;;22.60;66.60;;;;;;5111850;28;20038;-43
2023/09/08 00:22:37;;;;;;;4.00;3.40;;;22.60;66.70;;;;;;5111730;28;20047;-44
2023/09/08 00:25:04;;;;;;;4.07;3.55;;;22.50;67.50;;;;;;5111897;28;20073;-45
2023/09/08 00:27:30;;;;;;;4.00;3.50;;;22.50;66.90;;;;;;5111720;28;20459;-44
2023/09/08 00:29:56;;;;;;;5.30;3.63;;;22.40;66.80;;;;;;5111898;28;20024;-44
2023/09/08 00:32:22;;;;;;;4.72;3.63;;;22.40;66.90;;;;;;5111608;28;20024;-45
2023/09/08 00:34:47;;;;;;;3.97;3.55;;;22.40;67.00;;;;;;5093503;28;20538;-45
2023/09/08 00:37:13;;;;;;;4.22;3.42;;;22.40;67.10;;;;;;5093475;28;20027;-45
2023/09/08 00:39:39;;;;;;;5.13;3.78;;;22.40;67.10;;;;;;5111785;28;20024;-45
2023/09/08 00:42:05;;;;;;;4.00;3.60;;;22.30;67.20;;;;;;5111555;28;20055;-45
2023/09/08 00:44:30;;;;;;;3.97;3.30;;;22.30;67.30;;;;;;5111345;28;20055;-40
2023/09/08 00:46:56;;;;;;;4.93;3.50;;;22.30;67.30;;;;;;5111834;28;20019;-44
2023/09/08 00:49:22;;;;;;;4.63;3.72;;;22.20;67.30;;;;;;5111397;28;20068;-43
2023/09/08 00:51:48;;;;;;;4.80;3.63;;;22.20;67.40;;;;;;5111440;28;20206;-41
2023/09/08 00:54:15;;;;;;;4.00;3.60;;;22.20;67.50;;;;;;5111297;28;20027;-45
2023/09/08 00:56:41;;;;;;;5.63;3.92;;;22.10;67.60;;;;;;5111499;28;20028;-42
2023/09/08 00:59:07;;;;;;;5.85;3.92;;;22.10;67.60;;;;;;5093148;28;20042;-38
2023/09/08 01:01:34;;;;;;;4.97;3.90;;;22.10;67.80;;;;;;5111381;28;20035;-44
2023/09/08 01:04:01;;;;;;;5.30;3.80;;;22.10;67.90;;;;;;5115174;28;20028;-43
2023/09/08 01:06:27;;;;;;;4.60;3.72;;;22.00;67.80;;;;;;5115452;28;20015;-45
2023/09/08 01:08:54;;;;;;;4.38;3.67;;;22.00;67.90;;;;;;5115459;28;20031;-44
2023/09/08 01:11:21;;;;;;;4.82;3.90;;;22.00;68.50;;;;;;5115365;28;20077;-43
2023/09/08 01:13:47;;;;;;;4.35;3.70;;;21.90;68.00;;;;;;5115080;28;20057;-43
2023/09/08 01:16:12;;;;;;;5.03;4.28;;;21.90;68.00;;;;;;5115138;28;20060;-43
2023/09/08 01:18:38;;;;;;;4.60;3.50;;;21.90;68.00;;;;;;5115088;28;20032;-42
2023/09/08 01:21:30;;;;;;;4.60;4.03;;;21.90;68.10;;;;;;5115298;28;20115;-43
2023/09/08 01:24:21;;;;;;;4.57;4.00;;;21.90;68.20;;;;;;5114376;28;20046;-43
2023/09/08 01:26:47;;;;;;;5.22;4.20;;;21.80;68.30;;;;;;5115001;28;20039;-42
2023/09/08 01:29:14;;;;;;;5.78;3.63;;;21.80;68.30;;;;;;5096933;28;20110;-44
2023/09/08 01:31:40;;;;;;;4.65;4.13;;;21.70;68.30;;;;;;5115009;28;20285;-44
2023/09/08 01:34:06;;;;;;;5.72;4.10;;;21.70;68.30;;;;;;5114848;28;20044;-43
2023/09/08 01:36:35;;;;;;;5.15;3.80;;;21.70;68.40;;;;;;5114979;28;20047;-43
2023/09/08 01:39:02;;;;;;;5.47;4.13;;;21.70;68.40;;;;;;5114884;28;20024;-43
2023/09/08 01:41:28;;;;;;;4.63;3.75;;;21.70;68.50;;;;;;5114633;28;20054;-40
2023/09/08 01:43:54;;;;;;;4.60;3.90;;;21.70;68.50;;;;;;5114387;28;20028;-43
2023/09/08 01:46:20;;;;;;;4.63;3.85;;;21.60;68.50;;;;;;5114592;28;20510;-41
2023/09/08 01:48:46;;;;;;;5.93;4.50;;;21.60;68.50;;;;;;5114677;28;20098;-44
2023/09/08 01:51:11;;;;;;;6.97;3.90;;;21.60;68.50;;;;;;5114559;28;20167;-43
2023/09/08 01:53:37;;;;;;;4.30;3.88;;;21.60;68.60;;;;;;5114369;28;20019;-44
2023/09/08 01:56:02;;;;;;;5.50;3.83;;;21.60;68.70;;;;;;5114305;28;20038;-44
2023/09/08 01:58:30;;;;;;;4.75;4.25;;;21.50;68.70;;;;;;5114462;28;20465;-30
2023/09/08 02:01:00;;;;;;;5.13;3.90;;;21.50;68.80;;;;;;5114985;28;20424;-31
2023/09/08 02:03:25;;;;;;;5.20;4.13;;;21.50;68.90;;;;;;5114193;28;20019;-27
2023/09/08 02:05:51;;;;;;;5.65;4.38;;;21.40;68.90;;;;;;5114237;28;20024;-29
2023/09/08 02:08:16;;;;;;;4.40;4.00;;;21.40;69.00;;;;;;5114257;28;20077;-32
2023/09/08 02:10:42;;;;;;;5.43;4.43;;;21.40;69.10;;;;;;5114297;28;20034;-32
2023/09/08 02:13:08;;;;;;;6.57;4.00;;;21.30;69.10;;;;;;5094990;28;20039;-28
2023/09/08 02:15:36;;;;;;;5.97;4.30;;;21.30;69.20;;;;;;5114133;28;20110;-31
2023/09/08 02:18:02;;;;;;;7.65;4.50;;;21.30;69.90;;;;;;5114039;28;20546;-32
2023/09/08 02:20:27;;;;;;;6.00;4.18;;;21.30;70.00;;;;;;5114025;28;20031;-33
2023/09/08 02:22:54;;;;;;;5.75;3.90;;;21.20;69.30;;;;;;5114017;28;20027;-28
2023/09/08 02:25:20;;;;;;;6.03;4.50;;;21.20;69.40;;;;;;5113872;28;20140;-29
2023/09/08 02:27:46;;;;;;;6.75;4.10;;;21.20;69.50;;;;;;5113929;28;20255;-28
2023/09/08 02:30:12;;;;;;;4.90;3.95;;;21.10;69.60;;;;;;5113887;28;20034;-30
2023/09/08 02:32:37;;;;;;;4.80;3.92;;;21.10;69.70;;;;;;5113747;28;20028;-28
2023/09/08 02:35:03;;;;;;;5.68;4.13;;;21.10;69.70;;;;;;5095359;28;20019;-28
2023/09/08 02:37:29;;;;;;;5.30;4.00;;;21.10;69.80;;;;;;5113602;28;20031;-33
2023/09/08 02:39:54;;;;;;;5.65;4.30;;;21.00;69.90;;;;;;5095400;28;20485;-30
2023/09/08 02:42:20;;;;;;;4.65;4.18;;;21.00;69.90;;;;;;5113590;28;20085;-28
2023/09/08 02:44:45;;;;;;;7.22;4.43;;;21.00;70.00;;;;;;5113424;28;20024;-30
2023/09/08 02:47:11;;;;;;;5.40;4.63;;;20.90;70.00;;;;;;5113570;28;20431;-27
2023/09/08 02:49:37;;;;;;;5.18;4.68;;;20.90;70.20;;;;;;5113668;28;20020;-40
2023/09/08 02:52:02;;;;;;;5.80;4.45;;;20.90;70.20;;;;;;5113668;28;20066;-28
2023/09/08 02:54:28;;;;;;;5.40;4.35;;;20.90;70.30;;;;;;5113391;28;20436;-29
2023/09/08 02:56:54;;;;;;;5.45;4.65;;;20.90;70.30;;;;;;5113157;28;20028;-29
2023/09/08 02:59:19;;;;;;;4.95;4.40;;;20.80;70.40;;;;;;5113256;28;20434;-33
2023/09/08 03:01:45;;;;;;;4.93;4.20;;;20.80;70.40;;;;;;5113257;28;20032;-30
2023/09/08 03:04:10;;;;;;;5.18;4.50;;;20.80;70.50;;;;;;5113012;28;20481;-33
2023/09/08 03:06:36;;;;;;;7.35;4.47;;;20.80;70.50;;;;;;5113208;28;20024;-33
2023/09/08 03:09:01;;;;;;;5.32;4.13;;;20.80;70.60;;;;;;5112927;28;20050;-28
2023/09/08 03:11:28;;;;;;;5.90;4.82;;;20.80;70.60;;;;;;5113053;28;20032;-30
2023/09/08 03:13:53;;;;;;;8.25;4.78;;;20.80;70.70;;;;;;5112826;28;20504;-28
2023/09/08 03:16:19;;;;;;;5.03;4.53;;;20.70;70.70;;;;;;5112763;28;20027;-26
2023/09/08 03:18:44;;;;;;;5.60;4.63;;;20.70;70.80;;;;;;5094446;28;20477;-29
2023/09/08 03:21:14;;;;;;;5.93;4.50;;;20.70;70.80;;;;;;5112742;28;20103;-31
2023/09/08 03:23:40;;;;;;;5.13;4.63;;;20.70;70.90;;;;;;5112497;28;20270;-29
2023/09/08 03:26:07;;;;;;;5.85;4.50;;;20.70;71.00;;;;;;5112860;28;20032;-26
2023/09/08 03:28:34;;;;;;;5.95;4.80;;;20.60;71.60;;;;;;5112526;28;20058;-28
2023/09/08 03:31:01;;;;;;;5.00;4.47;;;20.60;71.00;;;;;;5112525;28;20516;-30
2023/09/08 03:33:27;;;;;;;5.72;4.90;;;20.60;71.10;;;;;;5112486;28;20689;-31
2023/09/08 03:35:52;;;;;;;5.57;4.40;;;20.60;71.20;;;;;;5112499;28;20556;-26
2023/09/08 03:38:18;;;;;;;5.78;4.65;;;20.60;71.30;;;;;;5112478;28;20032;-30
2023/09/08 03:40:44;;;;;;;5.30;4.80;;;20.50;71.30;;;;;;5112469;28;20425;-31
2023/09/08 03:43:09;;;;;;;5.22;4.72;;;20.60;71.40;;;;;;5112212;28;20115;-33
2023/09/08 03:45:35;;;;;;;5.15;4.32;;;20.50;71.40;;;;;;5112274;28;20059;-32
2023/09/08 03:48:01;;;;;;;6.70;4.70;;;20.50;71.40;;;;;;5093917;28;20030;-33
2023/09/08 03:50:26;;;;;;;5.63;4.78;;;20.50;71.40;;;;;;5112356;28;20394;-28
2023/09/08 03:52:53;;;;;;;7.07;5.05;;;20.50;71.40;;;;;;5111950;28;20031;-31
2023/09/08 03:55:19;;;;;;;6.25;4.78;;;20.50;71.50;;;;;;5111933;28;20066;-27
2023/09/08 03:57:45;;;;;;;7.10;4.80;;;20.50;71.50;;;;;;5112137;28;20072;-32
2023/09/08 04:00:11;;;;;;;7.22;5.07;;;20.50;71.40;;;;;;5112029;28;20510;-29
2023/09/08 04:02:37;;;;;;;6.70;5.13;;;20.50;71.50;;;;;;5111982;28;20071;-31
2023/09/08 04:05:03;;;;;;;6.60;4.85;;;20.40;71.50;;;;;;5111941;28;20015;-32
2023/09/08 04:07:29;;;;;;;6.28;5.05;;;20.50;71.60;;;;;;5093721;28;20024;-30
2023/09/08 04:09:54;;;;;;;5.60;4.93;;;20.40;71.60;;;;;;5112189;28;20030;-30
2023/09/08 04:12:20;;;;;;;5.53;4.93;;;20.40;71.60;;;;;;5111823;28;20034;-26
2023/09/08 04:14:45;;;;;;;5.60;4.97;;;20.40;71.70;;;;;;5112031;28;20054;-28
2023/09/08 04:17:11;;;;;;;7.50;5.30;;;20.40;71.70;;;;;;5111889;28;20032;-33
2023/09/08 04:19:37;;;;;;;7.65;5.45;;;20.40;71.70;;;;;;5111898;28;20019;-30
2023/09/08 04:22:02;;;;;;;6.68;5.28;;;20.40;71.70;;;;;;5111784;28;20027;-35
2023/09/08 04:24:28;;;;;;;6.03;5.15;;;20.40;71.80;;;;;;5111882;28;20032;-35
2023/09/08 04:26:54;;;;;;;6.72;5.53;;;20.40;71.80;;;;;;5111829;28;20075;-44
2023/09/08 04:29:19;;;;;;;5.63;4.95;;;20.40;71.80;;;;;;5111864;28;20023;-43
2023/09/08 04:31:45;;;;;;;6.57;5.63;;;20.40;71.80;;;;;;5112032;28;20074;-44
2023/09/08 04:34:11;;;;;;;8.80;5.45;;;20.40;71.80;;;;;;5111623;28;20485;-44
2023/09/08 04:36:36;;;;;;;5.70;5.10;;;20.30;71.70;;;;;;5111328;28;20015;-44
2023/09/08 04:39:02;;;;;;;6.88;5.63;;;20.30;71.80;;;;;;5111672;28;20038;-40
2023/09/08 04:41:28;;;;;;;6.32;5.68;;;20.30;71.80;;;;;;5111716;28;20561;-43
2023/09/08 04:43:55;;;;;;;9.60;6.07;;;20.30;72.50;;;;;;5111355;28;20397;-44
2023/09/08 04:46:20;;;;;;;7.13;5.28;;;20.30;72.00;;;;;;5111617;28;20114;-45
2023/09/08 04:48:46;;;;;;;7.13;5.32;;;20.30;72.00;;;;;;5111731;28;20513;-45
2023/09/08 04:51:11;;;;;;;6.65;5.50;;;20.30;72.00;;;;;;5111503;28;20020;-43
2023/09/08 04:53:37;;;;;;;7.55;5.90;;;20.30;72.00;;;;;;5111486;28;20043;-44
2023/09/08 04:56:03;;;;;;;9.43;5.93;;;20.30;72.00;;;;;;5111271;28;20111;-43
2023/09/08 04:58:29;;;;;;;7.40;5.85;;;20.30;72.10;;;;;;5111384;28;20038;-44
2023/09/08 05:00:55;;;;;;;6.22;5.43;;;20.20;72.00;;;;;;5093063;28;20120;-43
2023/09/08 05:03:20;;;;;;;6.07;5.40;;;20.20;72.00;;;;;;5111155;28;20084;-43
2023/09/08 05:05:46;;;;;;;7.60;6.07;;;20.20;72.10;;;;;;5111327;28;20028;-43
2023/09/08 05:08:12;;;;;;;7.88;6.05;;;20.20;72.10;;;;;;5111213;28;20023;-40
2023/09/08 05:10:37;;;;;;;7.10;5.68;;;20.20;72.10;;;;;;5111349;28;20050;-39
2023/09/08 05:13:03;;;;;;;6.40;5.80;;;20.20;72.20;;;;;;5111062;28;20449;-43
2023/09/08 05:15:30;;;;;;;6.93;5.65;;;20.20;72.20;;;;;;5111237;28;20031;-43
2023/09/08 05:17:56;;;;;;;8.45;6.00;;;20.30;72.30;;;;;;5111330;28;20059;-42
2023/09/08 05:20:21;;;;;;;6.78;5.57;;;20.20;72.30;;;;;;5111165;28;20520;-43
2023/09/08 05:22:47;;;;;;;8.65;5.68;;;20.30;72.30;;;;;;5110939;28;20027;-43
2023/09/08 05:25:13;;;;;;;7.65;6.05;;;20.20;72.20;;;;;;5111355;28;20020;-42
2023/09/08 05:27:38;;;;;;;8.13;6.20;;;20.20;72.30;;;;;;5111187;28;20048;-40
2023/09/08 05:30:04;;;;;;;6.63;5.68;;;20.20;72.30;;;;;;5111279;28;20027;-45
2023/09/08 05:32:30;;;;;;;7.13;5.78;;;20.20;72.30;;;;;;5111166;28;20526;-42
2023/09/08 05:34:55;;;;;;;6.70;6.00;;;20.20;72.30;;;;;;5111369;28;20115;-44
2023/09/08 05:37:21;;;;;;;6.55;5.50;;;20.30;72.40;;;;;;5111098;28;20031;-39
2023/09/08 05:39:47;;;;;;;8.45;6.13;;;20.30;72.40;;;;;;5111203;28;20435;-40
2023/09/08 05:42:12;;;;;;;8.70;6.25;;;20.30;72.30;;;;;;5111285;28;20469;-44
2023/09/08 05:44:39;;;;;;;6.05;5.32;;;20.30;72.30;;;;;;5111013;28;20420;-43
2023/09/08 05:47:05;;;;;;;6.93;5.57;;;20.30;72.30;;;;;;5111017;28;20019;-41
2023/09/08 05:49:30;;;;;;;10.15;5.85;;;20.30;72.90;;;;;;5113115;28;20473;-41
2023/09/08 05:51:56;;;;;;;6.30;5.30;;;20.40;72.90;;;;;;5114486;28;20114;-44
2023/09/08 05:54:21;;;;;;;6.65;5.63;;;20.40;72.20;;;;;;5114426;28;20027;-42
2023/09/08 05:56:47;;;;;;;7.85;5.63;;;20.40;72.20;;;;;;5114456;28;20477;-43
2023/09/08 05:59:12;;;;;;;6.50;5.55;;;20.40;72.20;;;;;;5114371;28;20385;-42
2023/09/08 06:01:38;;;;;;;7.93;5.95;;;20.40;72.20;;;;;;5114653;28;20466;-43
2023/09/08 06:04:04;;;;;;;8.20;6.10;;;20.50;72.20;;;;;;5114262;28;20373;-41
2023/09/08 06:06:29;;;;;;;6.32;5.65;;;20.50;72.20;;;;;;5114617;28;20066;-42
2023/09/08 06:08:55;;;;;;;6.38;5.70;;;20.50;72.20;;;;;;5096403;28;20423;-44
2023/09/08 06:11:20;;;;;;;7.28;5.55;;;20.50;72.20;;;;;;5114370;28;20121;-40
2023/09/08 06:13:47;;;;;;;7.85;6.18;;;20.50;72.20;;;;;;5114100;28;20043;-30
2023/09/08 06:16:12;;;;;;;6.30;5.57;;;20.60;72.30;;;;;;5114296;28;20053;-33
2023/09/08 06:18:41;;;;;;;6.85;5.55;;;20.60;72.20;;;;;;5114243;28;20059;-28
2023/09/08 06:21:07;;;;;;;7.07;6.38;;;20.60;72.10;;;;;;5114198;28;20016;-27
2023/09/08 06:23:33;;;;;;;6.60;5.93;;;20.70;72.20;;;;;;5114040;28;20042;-31
2023/09/08 06:26:00;;;;;;;8.30;5.80;;;20.70;72.30;;;;;;5114052;28;20055;-27
2023/09/08 06:28:28;;;;;;;7.20;6.00;;;20.70;72.10;;;;;;5095677;28;20043;-29
2023/09/08 06:30:54;;;;;;;6.68;5.95;;;20.70;72.00;;;;;;5113988;28;20012;-28
2023/09/08 06:33:22;;;;;;;7.18;5.80;;;20.80;72.00;;;;;;5113728;28;20023;-31
2023/09/08 06:35:48;;;;;;;10.73;6.07;;;20.80;72.00;;;;;;5114455;28;20465;-32
2023/09/08 06:38:14;;;;;;;7.70;6.07;;;20.80;72.00;;;;;;5114084;28;20031;-43
2023/09/08 06:40:39;;;;;;;6.93;5.97;;;20.80;71.90;;;;;;5113937;28;20063;-43
2023/09/08 06:43:05;;;;;;;7.53;5.68;;;20.90;71.90;;;;;;5113788;28;20015;-44
2023/09/08 06:45:31;;;;;;;7.68;6.18;;;21.00;71.90;;;;;;5095232;28;20094;-42
2023/09/08 06:47:57;;;;;;;9.13;6.28;;;21.00;71.80;;;;;;5113984;28;20024;-44
2023/09/08 06:50:23;;;;;;;6.70;6.00;;;21.00;71.70;;;;;;5113431;28;20077;-44
2023/09/08 06:52:49;;;;;;;6.93;5.82;;;21.00;71.70;;;;;;5113424;28;20517;-43
2023/09/08 06:55:16;;;;;;;7.18;5.68;;;21.10;71.70;;;;;;5113398;28;20020;-43
2023/09/08 06:57:42;;;;;;;6.80;6.07;;;21.10;71.60;;;;;;5095584;28;20532;-43
2023/09/08 07:00:08;;;;;;;7.20;6.15;;;21.20;71.60;;;;;;5113117;28;20639;-39
2023/09/08 07:02:34;;;;;;;6.45;5.65;;;21.20;71.50;;;;;;5113190;28;20023;-44
2023/09/08 07:05:00;;;;;;;7.30;5.90;;;21.30;71.50;;;;;;5113111;28;20069;-41
2023/09/08 07:07:26;;;;;;;6.45;5.78;;;21.30;71.40;;;;;;5113305;28;20496;-41
2023/09/08 07:09:51;;;;;;;7.10;6.40;;;21.40;71.40;;;;;;5113026;28;20019;-42
2023/09/08 07:12:17;;;;;;;7.28;5.80;;;21.40;71.30;;;;;;5113018;28;20524;-31
2023/09/08 07:14:42;;;;;;;7.60;5.80;;;21.50;71.30;;;;;;5094922;28;20404;-34
2023/09/08 07:17:08;;;;;;;7.82;6.18;;;21.50;71.20;;;;;;5112557;28;20119;-35
2023/09/08 07:19:33;;;;;;;7.85;6.18;;;21.50;71.10;;;;;;5111349;28;20031;-31
2023/09/08 07:21:59;;;;;;;11.55;6.28;;;21.60;71.10;;;;;;5111408;28;20031;-30
2023/09/08 07:24:24;;;;;;;6.72;6.00;;;21.60;71.00;;;;;;5111359;28;20027;-36
2023/09/08 07:26:51;;;;;;;7.88;5.97;;;21.60;70.90;;;;;;5089626;28;20378;-30
2023/09/08 07:29:16;;;;;;;6.43;5.82;;;21.70;70.80;;;;;;5092661;28;20099;-33
2023/09/08 07:31:42;;;;;;;6.88;5.78;;;21.70;70.70;;;;;;5092634;28;20131;-34
2023/09/08 07:34:07;;;;;;;6.47;5.65;;;21.80;70.60;;;;;;5092437;28;20394;-35
2023/09/08 07:36:34;;;;;;;7.28;6.03;;;21.90;70.60;;;;;;5092337;28;20062;-37
2023/09/08 07:39:00;;;;;;;7.22;6.40;;;21.90;70.50;;;;;;5092243;28;20070;-31
2023/09/08 07:41:25;;;;;;;7.15;5.88;;;21.90;70.50;;;;;;5092044;28;20405;-30
2023/09/08 07:43:51;;;;;;;8.98;6.25;;;22.00;70.40;;;;;;5091833;28;20133;-31
2023/09/08 07:46:16;;;;;;;9.32;5.97;;;22.00;70.30;;;;;;5092247;28;20070;-34
2023/09/08 07:48:42;;;;;;;7.20;5.95;;;22.00;70.30;;;;;;5092180;28;20039;-32
2023/09/08 07:51:07;;;;;;;6.75;5.95;;;22.10;70.30;;;;;;5092396;28;20020;-33
2023/09/08 07:53:33;;;;;;;8.18;5.78;;;22.10;70.20;;;;;;5091737;28;20035;-29
2023/09/08 07:55:58;;;;;;;6.72;5.80;;;22.20;70.20;;;;;;5092042;28;20038;-34
2023/09/08 07:58:24;;;;;;;7.25;6.20;;;22.20;70.10;;;;;;5092507;28;20031;-35
2023/09/08 08:00:50;;;;;;;8.15;6.13;;;22.20;70.00;;;;;;5092210;28;20385;-35
2023/09/08 08:03:15;;;;;;;6.28;5.20;;;22.30;70.00;;;;;;5091853;28;20543;-32
2023/09/08 08:05:41;;;;;;;10.05;5.85;;;22.30;69.90;;;;;;5092152;28;20127;-33
2023/09/08 08:08:09;;;;;;;6.63;5.50;;;22.40;69.90;;;;;;5091869;28;20032;-34
2023/09/08 08:10:34;;;;;;;6.75;5.95;;;22.40;69.80;;;;;;5091781;28;20035;-36
2023/09/08 08:13:00;;;;;;;7.03;5.97;;;22.50;69.80;;;;;;5091104;28;20224;-45
2023/09/08 08:15:36;;;;;;;6.95;6.20;;;22.50;70.40;;;;;;5091732;28;20098;-43
2023/09/08 08:18:03;;;;;;;7.68;5.85;;;22.60;69.80;;;;;;5091858;28;20057;-34
2023/09/08 08:20:28;;;;;;;6.95;5.90;;;22.60;69.70;;;;;;5091472;28;20035;-31
2023/09/08 08:22:54;;;;;;;7.47;5.65;;;22.60;69.60;;;;;;5091191;28;20035;-29
2023/09/08 08:25:19;;;;;;;6.53;5.78;;;22.70;69.60;;;;;;5091606;28;20016;-32
2023/09/08 08:27:45;;;;;;;8.25;5.93;;;22.80;69.60;;;;;;5103590;28;20075;-31
2023/09/08 08:30:11;;;;;;;6.32;5.60;;;22.80;69.50;;;;;;5112059;28;20019;-30
2023/09/08 08:32:36;;;;;;;7.45;5.30;;;22.90;69.40;;;;;;5111938;28;20051;-26
2023/09/08 08:35:04;;;;;;;8.70;5.55;;;22.90;69.30;;;;;;5111683;28;20342;-29
2023/09/08 08:37:30;;;;;;;6.78;5.57;;;23.00;69.30;;;;;;5111903;28;20103;-29
2023/09/08 08:39:55;;;;;;;6.47;5.75;;;23.00;69.20;;;;;;5111767;28;20047;-29
2023/09/08 08:42:22;;;;;;;7.07;5.75;;;23.10;69.10;;;;;;5111613;28;20168;-29
2023/09/08 08:44:48;;;;;;;6.22;5.25;;;23.20;69.10;;;;;;5111469;28;20020;-30
2023/09/08 08:47:15;;;;;;;7.05;5.25;;;23.20;69.00;;;;;;5111832;28;20020;-28
2023/09/08 08:49:45;;;;;;;7.55;5.57;;;23.30;68.90;;;;;;5111423;28;20023;-28
2023/09/08 08:52:12;;;;;;;5.68;5.13;;;23.40;68.90;;;;;;5111733;28;20019;-28
2023/09/08 08:54:40;;;;;;;6.32;5.55;;;23.40;68.80;;;;;;5111699;28;20023;-29
2023/09/08 08:57:07;;;;;;;6.55;5.50;;;23.50;68.70;;;;;;5111493;28;20020;-27
2023/09/08 08:59:33;;;;;;;6.07;5.47;;;23.60;68.60;;;;;;5111352;28;20059;-32
2023/09/08 09:01:59;;;;;;;6.53;5.05;;;23.70;68.40;;;;;;5111493;28;20187;-29
2023/09/08 09:04:28;;;;;;;6.95;5.47;;;23.80;68.30;;;;;;5111313;28;20088;-27
2023/09/08 09:06:54;;;;;;;5.63;5.05;;;23.80;68.10;;;;;;5111440;28;20016;-29
2023/09/08 09:09:20;;;;;;;5.85;5.25;;;23.90;68.00;;;;;;5093164;28;20043;-33
2023/09/08 09:11:46;;;;;;;7.15;5.40;;;24.00;68.00;;;;;;5111494;28;20020;-42
2023/09/08 09:14:12;;;;;;;6.70;5.60;;;24.10;67.80;;;;;;5111277;28;20027;-29
2023/09/08 09:16:44;;;;;;;6.32;5.32;;;24.20;67.80;;;;;;5111424;28;20028;-27
2023/09/08 09:19:25;;;;;;;6.00;5.40;;;24.30;67.60;;;;;;5111483;28;20029;-30
2023/09/08 09:21:54;;;;;;;7.80;5.35;;;24.30;67.50;;;;;;5111581;28;20050;-30
2023/09/08 09:24:34;;;;;;;6.03;5.20;;;24.40;67.40;;;;;;5114909;28;20031;-31
2023/09/08 09:27:01;;;;;;;7.20;5.32;;;24.50;67.30;;;;;;5115160;28;20561;-31
2023/09/08 09:29:28;;;;;;;6.18;5.00;;;24.60;67.10;;;;;;5115345;28;20373;-33
2023/09/08 09:32:01;;;;;;;5.95;5.40;;;24.70;66.90;;;;;;5115022;28;20023;-31
2023/09/08 09:34:27;;;;;;;5.30;4.80;;;24.70;66.70;;;;;;5096732;28;20066;-31
2023/09/08 09:36:52;;;;;;;6.68;5.38;;;24.80;66.70;;;;;;5115248;28;20047;-30
2023/09/08 09:39:20;;;;;;;7.30;5.72;;;24.90;66.60;;;;;;5096213;28;20064;-29
2023/09/08 09:41:47;;;;;;;6.78;5.78;;;24.90;66.40;;;;;;5115087;28;20028;-32
2023/09/08 09:44:13;;;;;;;6.00;5.40;;;25.00;66.30;;;;;;5114767;28;20050;-31
2023/09/08 09:46:43;;;;;;;6.00;5.22;;;25.10;66.20;;;;;;5115107;28;20343;-29
2023/09/08 09:49:11;;;;;;;6.45;5.53;;;25.10;66.80;;;;;;5115079;28;20110;-28
2023/09/08 09:51:42;;;;;;;6.55;5.60;;;25.20;66.10;;;;;;5114995;28;20027;-34
2023/09/08 09:54:07;;;;;;;6.15;5.55;;;25.30;65.90;;;;;;5114429;28;20498;-34
2023/09/08 09:56:36;;;;;;;5.47;4.97;;;25.30;65.70;;;;;;5096173;28;20023;-31
2023/09/08 09:59:02;;;;;;;6.85;5.03;;;25.40;65.50;;;;;;5114652;28;20102;-36
2023/09/08 10:01:29;;;;;;;5.35;4.85;;;25.40;65.30;;;;;;5114824;28;20030;-34
2023/09/08 10:03:55;;;;;;;5.85;5.07;;;25.50;65.20;;;;;;5114764;28;20019;-34
2023/09/08 10:06:22;;;;;;;8.15;5.13;;;25.60;65.10;;;;;;5114514;28;20061;-32
2023/09/08 10:08:48;;;;;;;5.63;5.13;;;25.70;65.20;;;;;;5096414;28;20048;-29
2023/09/08 10:11:18;;;;;;;6.47;5.40;;;25.70;65.00;;;;;;5114776;28;20043;-34
2023/09/08 10:13:47;;;;;;;7.53;5.68;;;25.70;65.00;;;;;;5114233;28;20085;-33
2023/09/08 10:16:19;;;;;;;9.88;5.93;;;25.80;65.10;;;;;;5096106;28;20054;-31
2023/09/08 10:18:47;;;;;;;5.75;5.20;;;25.90;65.20;;;;;;5114224;28;20038;-31
2023/09/08 10:21:13;;;;;;;6.18;5.20;;;25.90;65.20;;;;;;5114592;28;20084;-31
2023/09/08 10:23:50;;;;;;;5.93;5.22;;;25.90;65.20;;;;;;5095603;28;20028;-28
2023/09/08 10:26:17;;;;;;;5.63;5.03;;;26.00;65.30;;;;;;5114342;28;20012;-28
2023/09/08 10:28:44;;;;;;;6.30;4.70;;;26.00;65.30;;;;;;5113915;28;20066;-27
2023/09/08 10:31:11;;;;;;;5.22;4.30;;;26.10;65.30;;;;;;5113961;28;20024;-31
2023/09/08 10:33:37;;;;;;;4.45;4.05;;;26.10;65.20;;;;;;5113780;28;20031;-28
2023/09/08 10:36:05;;;;;;;5.30;4.50;;;26.20;65.10;;;;;;5113143;28;20030;-29
2023/09/08 10:38:34;;;;;;;5.88;4.30;;;26.30;65.10;;;;;;5113732;28;20030;-28
2023/09/08 10:41:15;;;;;;;4.75;4.22;;;26.40;65.00;;;;;;5113827;28;20023;-43
2023/09/08 10:43:42;;;;;;;6.40;4.20;;;26.40;64.80;;;;;;5113284;28;20135;-43
2023/09/08 10:46:21;;;;;;;4.55;4.10;;;26.50;64.80;;;;;;5113931;28;20024;-43
2023/09/08 10:48:46;;;;;;;4.82;4.05;;;26.60;64.60;;;;;;5113583;28;20362;-44
2023/09/08 10:51:18;;;;;;;4.30;3.55;;;26.70;64.60;;;;;;5113554;28;20023;-44
2023/09/08 10:53:47;;;;;;;3.88;3.50;;;26.70;64.50;;;;;;5113283;28;20481;-42
2023/09/08 10:56:13;;;;;;;4.35;3.70;;;26.80;64.40;;;;;;5113302;28;20054;-44
2023/09/08 10:58:42;;;;;;;5.32;4.00;;;26.90;64.20;;;;;;5113555;28;20059;-44
2023/09/08 11:01:11;;;;;;;4.18;3.72;;;27.00;64.10;;;;;;5113209;28;20405;-44
2023/09/08 11:03:37;;;;;;;4.72;3.72;;;27.10;63.90;;;;;;5112809;28;20073;-45
2023/09/08 11:06:03;;;;;;;4.32;3.83;;;27.10;63.60;;;;;;5113693;28;20019;-42
2023/09/08 11:08:29;;;;;;;5.63;3.83;;;27.20;63.50;;;;;;5113405;28;20022;-43
2023/09/08 11:10:56;;;;;;;4.43;3.80;;;27.30;63.40;;;;;;5113231;28;20380;-42
2023/09/08 11:13:21;;;;;;;5.25;3.50;;;27.30;63.30;;;;;;5113426;28;20077;-44
2023/09/08 11:15:47;;;;;;;3.80;3.30;;;27.40;63.10;;;;;;5113099;28;20481;-41
2023/09/08 11:18:13;;;;;;;3.85;3.50;;;27.50;62.70;;;;;;5112858;28;20035;-40
2023/09/08 11:20:38;;;;;;;3.63;3.28;;;27.50;62.30;;;;;;5112367;28;20085;-44
2023/09/08 11:23:07;;;;;;;7.80;3.97;;;27.60;62.20;;;;;;5112456;28;20031;-38
2023/09/08 11:25:34;;;;;;;5.10;3.42;;;27.70;62.00;;;;;;5112960;28;20035;-39
2023/09/08 11:28:00;;;;;;;5.03;3.67;;;27.80;61.90;;;;;;5112609;28;20035;-43
2023/09/08 11:30:26;;;;;;;4.25;3.30;;;27.80;61.70;;;;;;5113134;28;20385;-41
2023/09/08 11:32:52;;;;;;;3.63;3.33;;;27.90;61.50;;;;;;5112736;28;20111;-42
2023/09/08 11:35:20;;;;;;;4.10;3.70;;;28.00;61.20;;;;;;5094596;28;20102;-43
2023/09/08 11:37:46;;;;;;;3.80;3.50;;;28.10;61.00;;;;;;5112973;28;20046;-42
2023/09/08 11:40:13;;;;;;;4.45;2.80;;;28.10;60.80;;;;;;5112569;28;20112;-43
2023/09/08 11:42:46;;;;;;;3.20;2.90;;;28.20;60.60;;;;;;5112725;28;20131;-44
2023/09/08 11:45:22;;;;;;;3.50;3.15;;;28.30;60.60;;;;;;5112442;28;20116;-40
2023/09/08 11:47:51;;;;;;;4.85;2.85;;;28.40;60.50;;;;;;5112026;28;20426;-42
2023/09/08 11:50:18;;;;;;;3.17;2.88;;;28.50;60.30;;;;;;5094302;28;20099;-43
2023/09/08 11:52:47;;;;;;;4.22;3.15;;;28.60;60.00;;;;;;5112436;28;20024;-40
2023/09/08 11:55:14;;;;;;;3.50;3.15;;;28.60;59.80;;;;;;5112159;28;20012;-41
2023/09/08 11:57:45;;;;;;;4.93;2.80;;;28.70;59.70;;;;;;5112426;28;20027;-48
2023/09/08 12:00:16;;;;;;;3.67;2.78;;;28.80;59.40;;;;;;5112305;28;20023;-44
2023/09/08 12:02:42;;;;;;;4.55;3.10;;;28.90;60.00;;;;;;5112125;28;20051;-44
2023/09/08 12:05:28;;;;;;;3.85;3.33;;;29.00;59.20;;;;;;5112343;28;20101;-43
2023/09/08 12:07:58;;;;;;;4.63;3.20;;;29.10;59.20;;;;;;5112019;28;20027;-44
2023/09/08 12:10:25;;;;;;;3.38;3.08;;;29.20;59.10;;;;;;5112398;28;20024;-45
2023/09/08 12:12:58;;;;;;;3.55;3.03;;;29.30;59.00;;;;;;5112105;28;20020;-45
2023/09/08 12:15:43;;;;;;;3.53;2.90;;;29.40;58.90;;;;;;5112113;28;20024;-41
2023/09/08 12:18:11;;;;;;;3.25;2.95;;;29.50;58.80;;;;;;5093785;28;20096;-31
2023/09/08 12:20:39;;;;;;;4.53;3.22;;;29.60;58.70;;;;;;5112290;28;20027;-29
2023/09/08 12:23:20;;;;;;;4.65;3.00;;;29.70;58.60;;;;;;5112127;28;20019;-36
2023/09/08 12:25:46;;;;;;;3.50;2.90;;;29.80;58.40;;;;;;5111766;28;20091;-32
2023/09/08 12:28:12;;;;;;;3.58;3.28;;;29.90;58.40;;;;;;5111695;28;20050;-31
2023/09/08 12:30:39;;;;;;;3.85;3.45;;;29.90;58.30;;;;;;5112215;28;20024;-36
2023/09/08 12:33:05;;;;;;;4.80;3.25;;;30.00;58.90;;;;;;5112060;28;20020;-28
2023/09/08 12:35:31;;;;;;;4.45;3.13;;;30.00;58.20;;;;;;5112202;28;20046;-28
2023/09/08 12:38:01;;;;;;;3.92;3.55;;;30.10;58.00;;;;;;5111907;28;20442;-41
2023/09/08 12:40:28;;;;;;;3.85;3.40;;;30.20;58.00;;;;;;5111781;28;20028;-40
2023/09/08 12:42:54;;;;;;;4.20;3.50;;;30.30;58.00;;;;;;5111545;28;20027;-41